Time;durP1;ratioP1;P1;durP2;ratioP2;P2;SDS_P1;SDS_P2;PMS_P1;PMS_P2;Temp;Humidity;BMP_temperature;BMP_pressure;BME280_temperature;BME280_humidity;BME280_pressure;Samples;Min_cycle;Max_cycle;Signal;HPM_P1;HPM_P2
2022/08/09 00:00:07;;;;;;;6.53;3.20;;;;;;;20.43;62.48;100394.91;4372706;32;34594;-76
2022/08/09 00:02:39;;;;;;;5.03;2.83;;;;;;;20.85;61.13;100391.12;4378742;32;34705;-74
2022/08/09 00:05:09;;;;;;;5.07;2.97;;;;;;;20.96;60.68;100386.88;4369880;32;33767;-75
2022/08/09 00:07:57;;;;;;;8.10;2.87;;;;;;;20.98;60.66;100390.41;4374091;32;33486;-76
2022/08/09 00:10:27;;;;;;;5.35;3.58;;;;;;;20.81;61.26;100398.09;4378651;32;34118;-75
2022/08/09 00:12:56;;;;;;;8.10;4.35;;;;;;;20.19;63.89;100401.59;4378503;32;33856;-76
2022/08/09 00:15:24;;;;;;;6.10;3.87;;;;;;;20.14;64.17;100394.50;4378055;32;33748;-75
2022/08/09 00:18:13;;;;;;;6.07;4.20;;;;;;;20.12;64.73;100399.72;4378653;32;34101;-76
2022/08/09 00:20:41;;;;;;;7.90;4.43;;;;;;;19.72;66.47;100393.84;4378401;32;33885;-75
2022/08/09 00:23:17;;;;;;;6.93;4.20;;;;;;;20.15;65.13;100399.78;4378416;32;33961;-73
2022/08/09 00:26:05;;;;;;;7.93;4.60;;;;;;;20.45;64.41;100385.28;4368048;32;34168;-73
2022/08/09 00:28:33;;;;;;;6.65;4.25;;;;;;;21.11;61.80;100386.19;4376413;32;33516;-76
2022/08/09 00:31:03;;;;;;;6.12;4.03;;;;;;;20.93;62.47;100386.84;4378151;32;33540;-77
2022/08/09 00:33:51;;;;;;;13.23;4.53;;;;;;;20.45;64.20;100390.56;4378981;32;34580;-76
2022/08/09 00:36:21;;;;;;;6.90;4.35;;;;;;;19.97;66.39;100388.97;4378019;32;33958;-75
2022/08/09 00:38:57;;;;;;;8.05;4.35;;;;;;;19.96;66.67;100392.47;4378090;32;33412;-76
2022/08/09 00:41:25;;;;;;;8.05;4.78;;;;;;;19.60;68.14;100388.31;4365197;32;33788;-75
2022/08/09 00:44:12;;;;;;;6.90;4.93;;;;;;;19.81;67.67;100388.72;4377738;32;34584;-74
2022/08/09 00:46:53;;;;;;;7.37;4.97;;;;;;;19.88;67.45;100391.47;4362844;32;33369;-74
2022/08/09 00:49:33;;;;;;;8.82;5.30;;;;;;;19.67;68.06;100382.31;4374938;32;34148;-74
2022/08/09 00:52:03;;;;;;;8.38;4.87;;;;;;;19.60;68.46;100389.19;4378301;32;33674;-76
2022/08/09 00:54:42;;;;;;;7.85;5.50;;;;;;;19.74;68.07;100380.69;4377750;32;32622;-74
2022/08/09 00:57:11;;;;;;;7.05;5.05;;;;;;;19.87;67.69;100380.03;4374492;32;33917;-75
2022/08/09 00:59:41;;;;;;;7.18;4.87;;;;;;;20.10;66.90;100374.28;4378210;32;33394;-75
2022/08/09 01:02:24;;;;;;;8.07;5.03;;;;;;;20.65;64.61;100372.47;4376977;32;34028;-74
2022/08/09 01:05:00;;;;;;;8.48;5.18;;;;;;;21.24;62.76;100363.47;4377327;32;33867;-74
2022/08/09 01:07:45;;;;;;;8.02;4.40;;;;;;;21.64;61.24;100366.53;4358622;32;32098;-73
2022/08/09 01:10:37;;;;;;;8.23;4.60;;;;;;;21.43;61.95;100376.84;4377736;32;33669;-74
2022/08/09 01:13:26;;;;;;;8.27;4.97;;;;;;;20.99;63.33;100380.75;4365292;32;34566;-73
2022/08/09 01:16:14;;;;;;;9.50;5.40;;;;;;;20.50;65.41;100380.13;4371249;32;33868;-75
2022/08/09 01:18:45;;;;;;;9.90;5.70;;;;;;;20.29;66.52;100380.69;4365216;32;33911;-73
2022/08/09 01:21:52;;;;;;;8.93;6.25;;;;;;;20.00;67.95;100373.25;4367160;32;33664;-76
2022/08/09 01:24:44;;;;;;;10.25;7.10;;;;;;;20.04;68.38;100377.69;4368054;32;33887;-74
2022/08/09 01:27:18;;;;;;;9.13;6.20;;;;;;;20.09;68.40;100378.66;4379816;32;35068;-76
2022/08/09 01:29:51;;;;;;;9.30;7.05;;;;;;;19.53;70.11;100366.31;4378221;32;34502;-75
2022/08/09 01:32:29;;;;;;;9.27;6.90;;;;;;;19.35;72.22;100364.22;4385005;32;33364;-75
2022/08/09 01:35:06;;;;;;;10.30;6.87;;;;;;;18.58;75.30;100367.97;4385247;32;34559;-74
2022/08/09 01:37:56;;;;;;;12.20;7.62;;;;;;;18.24;77.40;100364.59;4365707;32;33973;-73
2022/08/09 01:40:41;;;;;;;10.43;7.10;;;;;;;18.31;77.14;100372.59;4374967;32;34123;-74
2022/08/09 01:43:10;;;;;;;9.63;6.55;;;;;;;18.91;74.25;100368.63;4377251;32;34083;-73
2022/08/09 01:45:39;;;;;;;11.10;6.10;;;;;;;18.38;76.68;100372.75;4365045;32;34084;-72
2022/08/09 01:48:14;;;;;;;9.18;5.97;;;;;;;18.82;74.52;100370.22;4371586;32;34835;-74
2022/08/09 01:50:48;;;;;;;8.15;5.68;;;;;;;18.81;74.14;100363.22;4365295;32;34457;-73
2022/08/09 01:53:22;;;;;;;10.77;4.87;;;;;;;18.83;73.87;100365.87;4374735;32;34179;-73
2022/08/09 01:55:56;;;;;;;8.35;5.12;;;;;;;18.75;73.08;100372.66;4372755;32;32591;-73
2022/08/09 01:58:26;;;;;;;6.68;4.40;;;;;;;18.62;73.25;100371.50;4377890;32;34886;-73
2022/08/09 02:00:56;;;;;;;6.97;4.07;;;;;;;19.11;72.07;100355.94;4376772;32;33995;-74
2022/08/09 02:03:24;;;;;;;10.20;4.97;;;;;;;19.88;68.41;100357.28;4365791;32;34013;-73
2022/08/09 02:05:53;;;;;;;7.43;5.03;;;;;;;20.03;67.66;100354.91;4365701;32;34671;-74
2022/08/09 02:08:35;;;;;;;7.95;5.40;;;;;;;20.06;67.71;100349.66;4363988;32;33940;-73
2022/08/09 02:11:26;;;;;;;10.25;5.80;;;;;;;19.77;68.82;100354.47;4371058;32;34013;-74
2022/08/09 02:14:11;;;;;;;9.23;5.50;;;;;;;19.94;68.36;100346.88;4375977;32;33619;-73
2022/08/09 02:16:54;;;;;;;10.63;6.30;;;;;;;19.62;69.63;100344.56;4355178;32;34668;-74
2022/08/09 02:19:41;;;;;;;9.77;6.90;;;;;;;18.43;75.16;100349.28;4381774;32;33987;-73
2022/08/09 02:22:17;;;;;;;11.00;6.65;;;;;;;18.82;74.29;100335.25;4378114;32;33663;-74
2022/08/09 02:24:56;;;;;;;11.57;7.60;;;;;;;18.72;75.15;100346.38;4366965;32;31981;-73
2022/08/09 02:27:28;;;;;;;9.82;6.85;;;;;;;18.60;75.84;100332.16;4377893;32;34059;-74
2022/08/09 02:30:16;;;;;;;10.40;7.00;;;;;;;18.66;76.19;100337.50;4376722;32;34766;-72
2022/08/09 02:32:46;;;;;;;12.20;7.37;;;;;;;18.64;75.80;100333.97;4366274;32;34671;-73
2022/08/09 02:35:19;;;;;;;11.20;7.00;;;;;;;17.88;78.82;100328.78;4370246;32;33548;-73
2022/08/09 02:38:09;;;;;;;9.27;6.75;;;;;;;19.00;74.11;100317.19;4367539;32;33640;-74
2022/08/09 02:40:37;;;;;;;10.68;7.75;;;;;;;19.47;71.81;100323.28;4361398;32;33933;-73
2022/08/09 02:43:07;;;;;;;12.45;7.70;;;;;;;18.84;74.23;100330.91;4376996;32;34682;-73
2022/08/09 02:45:41;;;;;;;11.82;8.02;;;;;;;17.68;79.88;100340.53;4365015;32;32167;-73
2022/08/09 02:48:14;;;;;;;11.70;7.78;;;;;;;18.15;77.88;100338.16;4376334;32;34770;-74
2022/08/09 02:50:58;;;;;;;12.07;8.00;;;;;;;18.45;76.85;100337.06;4355855;32;34128;-73
2022/08/09 02:53:33;;;;;;;11.48;8.30;;;;;;;17.87;80.61;100329.66;4362735;32;34526;-73
2022/08/09 02:56:03;;;;;;;13.10;9.00;;;;;;;18.25;78.26;100340.16;4364921;32;34063;-73
2022/08/09 02:58:31;;;;;;;12.63;8.30;;;;;;;18.40;77.74;100338.69;4368519;32;34565;-74
2022/08/09 03:01:05;;;;;;;12.98;8.00;;;;;;;18.58;76.75;100339.09;4381627;32;32461;-73
2022/08/09 03:03:36;;;;;;;16.15;8.88;;;;;;;18.37;77.71;100343.88;4363822;32;33311;-73
2022/08/09 03:06:24;;;;;;;10.70;7.62;;;;;;;18.21;78.03;100346.16;4374176;32;33675;-73
2022/08/09 03:08:54;;;;;;;11.40;7.82;;;;;;;18.04;78.48;100348.41;4374487;32;34444;-73
2022/08/09 03:11:23;;;;;;;11.82;7.70;;;;;;;18.21;78.00;100356.63;4365350;32;34811;-74
2022/08/09 03:14:11;;;;;;;10.30;7.45;;;;;;;18.22;77.63;100355.81;4367076;32;34469;-73
2022/08/09 03:16:40;;;;;;;10.90;8.40;;;;;;;18.36;77.18;100357.84;4370796;32;33375;-75
2022/08/09 03:19:18;;;;;;;13.32;8.40;;;;;;;18.53;75.90;100350.34;4381317;32;32587;-74
2022/08/09 03:22:07;;;;;;;9.18;7.37;;;;;;;17.94;78.56;100354.28;4364512;32;33643;-74
2022/08/09 03:24:52;;;;;;;11.65;7.75;;;;;;;17.92;79.07;100352.47;4362329;32;33767;-73
2022/08/09 03:27:34;;;;;;;10.30;8.00;;;;;;;17.86;79.61;100351.47;4375813;32;33122;-73
2022/08/09 03:30:13;;;;;;;11.85;8.13;;;;;;;18.00;78.30;100353.53;4366601;32;33732;-74
2022/08/09 03:33:06;;;;;;;11.40;7.85;;;;;;;17.75;79.03;100355.56;4368694;32;34545;-72
2022/08/09 03:35:47;;;;;;;12.05;8.00;;;;;;;18.32;76.90;100356.00;4354043;32;33593;-74
2022/08/09 03:38:39;;;;;;;13.65;8.43;;;;;;;18.06;77.27;100358.94;4376475;32;33967;-74
2022/08/09 03:41:11;;;;;;;13.85;8.80;;;;;;;18.15;77.41;100359.13;4376726;32;34738;-74
2022/08/09 03:43:43;;;;;;;11.75;7.97;;;;;;;17.91;78.13;100358.56;4376463;32;33862;-74
2022/08/09 03:46:31;;;;;;;13.25;8.20;;;;;;;17.83;78.61;100356.63;4377526;32;34043;-74
2022/08/09 03:49:01;;;;;;;15.23;7.80;;;;;;;18.09;77.38;100353.75;4376158;32;34167;-74
2022/08/09 03:51:38;;;;;;;12.23;7.55;;;;;;;19.42;71.64;100346.84;4376683;32;33677;-74
2022/08/09 03:54:36;;;;;;;12.35;8.07;;;;;;;19.87;69.44;100350.25;4366208;32;34826;-73
2022/08/09 03:57:08;;;;;;;9.70;7.35;;;;;;;19.51;69.83;100346.13;4366996;32;34455;-74
2022/08/09 03:59:48;;;;;;;11.48;7.87;;;;;;;18.88;72.47;100351.09;4376937;32;32070;-74
2022/08/09 04:02:25;;;;;;;10.43;7.70;;;;;;;17.79;78.00;100353.88;4364738;32;34429;-73
2022/08/09 04:04:57;;;;;;;11.43;7.82;;;;;;;18.68;74.62;100358.56;4378170;32;34610;-74
2022/08/09 04:07:27;;;;;;;11.63;8.05;;;;;;;19.15;71.62;100353.38;4376341;32;33113;-74
2022/08/09 04:10:15;;;;;;;11.00;7.47;;;;;;;18.39;75.32;100363.19;4375338;32;33471;-74
2022/08/09 04:12:51;;;;;;;11.63;7.72;;;;;;;18.21;76.30;100359.25;4376468;32;33638;-74
2022/08/09 04:15:22;;;;;;;11.40;8.10;;;;;;;18.01;77.25;100355.31;4376567;32;34485;-74
2022/08/09 04:18:10;;;;;;;12.00;7.75;;;;;;;18.05;77.33;100363.28;4376342;32;33743;-74
2022/08/09 04:20:47;;;;;;;;;;;;;;;18.27;76.21;100364.66;4371597;32;34368;-74
2022/08/09 04:23:15;;;;;;;10.85;7.57;;;;;;;18.46;75.96;100360.69;4377219;32;33135;-74
2022/08/09 04:25:44;;;;;;;12.52;7.65;;;;;;;19.28;72.45;100356.22;4366012;32;33261;-74
2022/08/09 04:28:21;;;;;;;10.57;7.65;;;;;;;19.80;69.87;100363.31;4376209;32;33857;-75
2022/08/09 04:31:04;;;;;;;13.35;8.07;;;;;;;19.76;69.99;100364.12;4378146;32;34260;-74
2022/08/09 04:33:38;;;;;;;14.48;8.45;;;;;;;19.37;71.36;100372.16;4370930;32;33668;-73
2022/08/09 04:36:23;;;;;;;12.05;9.85;;;;;;;19.41;71.01;100374.88;4375301;32;34058;-74
2022/08/09 04:38:53;;;;;;;14.48;9.80;;;;;;;17.84;78.09;100384.59;4379546;32;34513;-74
2022/08/09 04:41:21;;;;;;;12.32;9.20;;;;;;;17.90;78.52;100383.88;4367130;32;33411;-73
2022/08/09 04:43:51;;;;;;;12.98;9.18;;;;;;;19.05;74.16;100383.81;4378960;32;33781;-73
2022/08/09 04:46:34;;;;;;;14.60;7.95;;;;;;;19.19;73.17;100380.56;4378388;32;34724;-74
2022/08/09 04:49:21;;;;;;;13.23;8.43;;;;;;;19.82;70.40;100377.34;4378051;32;33915;-75
2022/08/09 04:52:09;;;;;;;10.77;8.55;;;;;;;19.78;70.15;100383.44;4378712;32;34393;-73
2022/08/09 04:54:37;;;;;;;14.30;8.32;;;;;;;20.08;68.83;100382.13;4376258;32;33996;-74
2022/08/09 04:57:04;;;;;;;12.35;8.57;;;;;;;19.77;70.35;100386.91;4374178;32;34729;-73
2022/08/09 04:59:36;;;;;;;13.10;9.02;;;;;;;19.37;71.63;100380.94;4361968;32;33932;-74
2022/08/09 05:02:04;;;;;;;14.73;9.40;;;;;;;20.19;69.27;100379.69;4377019;32;33399;-74
2022/08/09 05:04:32;;;;;;;13.75;9.45;;;;;;;20.27;68.61;100372.78;4376786;32;34649;-74
2022/08/09 05:07:00;;;;;;;13.05;9.20;;;;;;;19.74;71.01;100386.88;4377624;32;33806;-73
2022/08/09 05:09:29;;;;;;;19.00;10.05;;;;;;;19.74;70.98;100376.34;4377072;32;33514;-74
2022/08/09 05:12:16;;;;;;;11.93;9.10;;;;;;;18.25;78.20;100379.50;4376823;32;33200;-75
2022/08/09 05:14:44;;;;;;;11.02;8.80;;;;;;;19.07;74.72;100377.72;4376484;32;33662;-75
2022/08/09 05:17:12;;;;;;;14.25;9.65;;;;;;;19.90;71.06;100384.50;4377870;32;34716;-76
2022/08/09 05:19:59;;;;;;;14.68;10.15;;;;;;;19.93;70.62;100388.03;4376753;32;34719;-73
2022/08/09 05:22:28;;;;;;;11.68;9.27;;;;;;;18.27;78.29;100388.28;4378239;32;33972;-73
2022/08/09 05:25:15;;;;;;;12.65;9.23;;;;;;;18.70;77.25;100382.16;4369090;32;33938;-74
2022/08/09 05:27:45;;;;;;;13.20;8.88;;;;;;;19.79;72.16;100382.56;4360184;32;33249;-75
2022/08/09 05:30:14;;;;;;;14.18;10.55;;;;;;;19.95;71.46;100385.44;4376417;32;33814;-71
2022/08/09 05:32:44;;;;;;;12.70;8.98;;;;;;;18.91;76.29;100395.81;4362517;32;33219;-74
2022/08/09 05:35:17;;;;;;;10.65;8.48;;;;;;;20.07;71.75;100385.63;4374149;32;34663;-75
2022/08/09 05:37:49;;;;;;;14.30;9.57;;;;;;;20.58;68.67;100389.87;4377624;32;33881;-74
2022/08/09 05:40:17;;;;;;;11.68;8.48;;;;;;;19.13;75.11;100401.47;4376546;32;33897;-77
2022/08/09 05:42:46;;;;;;;13.20;8.55;;;;;;;20.56;69.48;100391.59;4375188;32;33566;-77
2022/08/09 05:45:13;;;;;;;12.37;8.40;;;;;;;20.97;67.66;100396.53;4375397;32;33961;-75
2022/08/09 05:47:42;;;;;;;11.82;9.18;;;;;;;20.43;70.07;100393.16;4377443;32;34595;-74
2022/08/09 05:50:22;;;;;;;11.10;9.18;;;;;;;20.23;71.03;100398.16;4377255;32;33894;-76
2022/08/09 05:53:10;;;;;;;13.20;8.60;;;;;;;19.98;71.50;100393.37;4378175;32;34005;-75
2022/08/09 05:55:58;;;;;;;13.02;8.35;;;;;;;20.38;69.79;100391.38;4377280;32;33678;-78
2022/08/09 05:58:27;;;;;;;13.02;8.93;;;;;;;19.77;73.12;100396.53;4377417;32;34001;-74
2022/08/09 06:00:55;;;;;;;13.52;8.55;;;;;;;20.20;71.05;100392.87;4377414;32;33843;-75
2022/08/09 06:03:24;;;;;;;10.52;8.98;;;;;;;20.26;71.74;100391.16;4374863;32;33499;-75
2022/08/09 06:06:10;;;;;;;13.85;9.45;;;;;;;20.72;70.17;100390.06;4376141;32;35773;-76
2022/08/09 06:08:38;;;;;;;12.52;9.23;;;;;;;19.87;72.43;100387.94;4376535;32;33713;-75
2022/08/09 06:11:06;;;;;;;10.93;8.20;;;;;;;20.18;71.52;100391.03;4376569;32;33627;-76
2022/08/09 06:13:44;;;;;;;11.32;8.60;;;;;;;20.38;71.17;100388.72;4376635;32;33411;-75
2022/08/09 06:16:14;;;;;;;13.02;7.60;;;;;;;20.20;71.44;100387.59;4366636;32;34080;-76
2022/08/09 06:18:42;;;;;;;12.15;8.07;;;;;;;20.52;70.12;100389.78;4377351;32;33996;-77
2022/08/09 06:21:10;;;;;;;9.88;7.03;;;;;;;20.35;70.94;100386.91;4376487;32;34494;-75
2022/08/09 06:23:37;;;;;;;15.85;7.50;;;;;;;20.61;69.96;100389.94;4363911;32;31909;-75
2022/08/09 06:26:24;;;;;;;14.73;7.15;;;;;;;20.59;69.80;100385.47;4374700;32;33920;-75
2022/08/09 06:28:55;;;;;;;11.05;7.30;;;;;;;20.78;69.68;100386.63;4376411;32;33713;-72
2022/08/09 06:31:32;;;;;;;11.18;6.62;;;;;;;20.96;68.65;100378.97;4375666;32;34728;-75
2022/08/09 06:34:20;;;;;;;9.05;6.50;;;;;;;21.21;67.94;100392.44;4373361;32;34297;-76
2022/08/09 06:36:50;;;;;;;11.20;5.90;;;;;;;21.38;66.98;100388.22;4375945;32;34344;-79
2022/08/09 06:39:30;;;;;;;10.77;6.30;;;;;;;21.84;65.45;100387.78;4375431;32;33705;-78
2022/08/09 06:42:19;;;;;;;10.27;5.35;;;;;;;21.62;65.63;100385.84;4382849;32;34418;-75
2022/08/09 06:44:55;;;;;;;8.82;5.15;;;;;;;22.10;63.99;100395.91;4377357;32;33344;-76
2022/08/09 06:47:24;;;;;;;13.88;5.43;;;;;;;22.83;61.71;100391.94;4369128;32;33687;-77
2022/08/09 06:49:56;;;;;;;9.18;4.75;;;;;;;23.22;59.37;100392.09;4369163;32;33964;-78
2022/08/09 06:52:46;;;;;;;7.18;5.00;;;;;;;23.85;56.85;100392.19;4375317;32;32880;-77
2022/08/09 06:55:17;;;;;;;8.07;5.03;;;;;;;24.81;54.28;100393.81;4373021;32;33292;-76
2022/08/09 06:57:50;;;;;;;9.18;4.70;;;;;;;24.89;53.34;100392.00;4375503;32;34697;-78
2022/08/09 07:00:32;;;;;;;10.15;4.85;;;;;;;26.11;49.88;100393.00;4366520;32;32409;-81
2022/08/09 07:03:23;;;;;;;6.75;4.22;;;;;;;25.98;50.45;100385.16;4376532;32;33658;-75
2022/08/09 07:05:56;;;;;;;8.40;4.70;;;;;;;27.63;45.95;100384.00;4358709;32;33298;-77
2022/08/09 07:08:33;;;;;;;10.13;4.57;;;;;;;27.34;46.41;100384.47;4382026;32;33791;-75
2022/08/09 07:11:03;;;;;;;11.07;4.15;;;;;;;28.37;44.19;100382.72;4375266;32;34770;-73
2022/08/09 07:13:34;;;;;;;8.00;4.40;;;;;;;27.85;44.80;100386.31;4377366;32;34602;-77
2022/08/09 07:16:21;;;;;;;9.15;4.43;;;;;;;28.59;43.27;100382.38;4377233;32;33281;-74
2022/08/09 07:19:10;;;;;;;9.55;4.40;;;;;;;29.82;40.18;100379.63;4377218;32;34808;-74
2022/08/09 07:21:42;;;;;;;6.20;3.70;;;;;;;31.09;37.34;100372.53;4376108;32;33764;-78
2022/08/09 07:24:29;;;;;;;9.02;4.10;;;;;;;32.42;35.52;100376.22;4371963;32;33746;-76
2022/08/09 07:27:10;;;;;;;6.28;4.05;;;;;;;32.53;34.01;100385.59;4375840;32;33440;-77
2022/08/09 07:29:58;;;;;;;9.05;4.20;;;;;;;32.10;34.45;100372.84;4372522;32;34211;-74
2022/08/09 07:32:27;;;;;;;8.18;4.20;;;;;;;32.44;34.38;100383.25;4374220;32;33733;-75
2022/08/09 07:35:05;;;;;;;5.85;3.55;;;;;;;33.09;32.38;100373.66;4375660;32;34710;-75
2022/08/09 07:37:40;;;;;;;5.62;3.80;;;;;;;33.87;30.66;100369.63;4386416;32;33326;-75
2022/08/09 07:40:13;;;;;;;8.27;4.10;;;;;;;34.31;30.67;100375.84;4373598;32;34807;-76
2022/08/09 07:42:54;;;;;;;;;;;;;;;33.70;31.03;100372.16;4366288;32;34080;-75
2022/08/09 07:45:26;;;;;;;7.25;3.35;;;;;;;32.59;32.87;100373.81;4375083;32;34368;-76
2022/08/09 07:48:07;;;;;;;;;;;;;;;34.10;30.32;100370.44;4371518;32;34089;-76
2022/08/09 07:50:59;;;;;;;7.60;3.60;;;;;;;34.52;30.09;100374.91;4366018;32;34876;-75
2022/08/09 07:53:49;;;;;;;7.90;3.92;;;;;;;34.94;28.61;100368.47;4366250;32;33854;-75
2022/08/09 07:56:36;;;;;;;7.80;4.00;;;;;;;34.36;29.49;100366.63;4378740;32;33691;-78
2022/08/09 07:59:18;;;;;;;7.55;3.87;;;;;;;32.03;33.29;100371.34;4378324;32;33347;-75
2022/08/09 08:02:06;;;;;;;7.57;3.83;;;;;;;32.06;33.42;100368.53;4379299;32;33890;-77
2022/08/09 08:04:36;;;;;;;7.85;3.40;;;;;;;34.10;30.84;100375.84;4378218;32;34060;-75
2022/08/09 08:07:04;;;;;;;5.40;3.53;;;;;;;35.42;28.49;100364.38;4366256;32;33802;-77
2022/08/09 08:09:52;;;;;;;6.20;3.78;;;;;;;36.02;27.34;100373.97;4379607;32;33726;-77
2022/08/09 08:12:36;;;;;;;8.63;3.75;;;;;;;35.11;27.80;100364.09;4379407;32;34814;-76
2022/08/09 08:15:16;;;;;;;6.85;3.40;;;;;;;35.59;26.88;100362.66;4368524;32;34584;-75
2022/08/09 08:17:50;;;;;;;8.02;3.70;;;;;;;36.88;25.82;100361.31;4379419;32;33988;-76
2022/08/09 08:20:24;;;;;;;7.00;3.62;;;;;;;37.46;25.15;100364.38;4379232;32;33524;-74
2022/08/09 08:23:02;;;;;;;7.57;3.50;;;;;;;36.03;26.32;100359.53;4379450;32;33990;-76
2022/08/09 08:25:47;;;;;;;6.60;3.80;;;;;;;35.78;26.45;100358.13;4366792;32;33820;-75
2022/08/09 08:28:32;;;;;;;8.15;3.55;;;;;;;37.18;25.48;100355.13;4367631;32;34481;-77
2022/08/09 08:31:02;;;;;;;7.75;3.58;;;;;;;34.82;28.44;100363.66;4379340;32;33385;-77
2022/08/09 08:33:42;;;;;;;8.07;3.80;;;;;;;33.18;30.59;100344.75;4379035;32;34675;-75
2022/08/09 08:36:23;;;;;;;8.82;4.12;;;;;;;30.98;34.52;100347.91;4378605;32;34515;-76
2022/08/09 08:38:58;;;;;;;8.60;4.07;;;;;;;32.79;31.77;100342.66;4368232;32;34717;-74
2022/08/09 08:41:27;;;;;;;6.87;3.55;;;;;;;31.02;34.96;100348.69;4379277;32;34133;-75
2022/08/09 08:44:17;;;;;;;6.45;3.90;;;;;;;31.81;33.65;100350.59;4379300;32;33673;-75
2022/08/09 08:46:54;;;;;;;8.48;4.10;;;;;;;33.18;31.68;100347.44;4356033;32;34714;-77
2022/08/09 08:49:31;;;;;;;5.97;3.90;;;;;;;33.49;31.28;100345.25;4378719;32;33892;-77
2022/08/09 08:52:14;;;;;;;;;;;;;;;30.67;35.77;100359.50;4379577;32;33461;-75
2022/08/09 08:55:01;;;;;;;6.28;3.70;;;;;;;30.83;35.61;100354.59;4357685;32;34422;-76
2022/08/09 08:57:32;;;;;;;6.65;3.92;;;;;;;31.63;34.71;100353.94;4379129;32;34514;-75
2022/08/09 09:00:04;;;;;;;8.13;4.20;;;;;;;33.27;31.38;100349.75;4365640;32;32827;-75
2022/08/09 09:02:44;;;;;;;6.68;3.75;;;;;;;31.96;33.14;100354.56;4354605;32;33984;-75
2022/08/09 09:05:23;;;;;;;9.30;3.80;;;;;;;32.93;31.74;100343.00;4363087;32;187910;-75
2022/08/09 09:08:13;;;;;;;21.40;5.18;;;;;;;31.11;34.90;100343.06;4379176;32;34012;-74
2022/08/09 09:11:02;;;;;;;6.00;3.75;;;;;;;30.65;35.70;100356.00;4369414;32;34978;-75
2022/08/09 09:13:35;;;;;;;9.60;3.87;;;;;;;31.07;35.12;100346.78;4379174;32;34339;-75
2022/08/09 09:16:27;;;;;;;7.55;3.87;;;;;;;31.11;35.49;100349.28;4372572;32;33937;-75
2022/08/09 09:18:59;;;;;;;7.40;4.05;;;;;;;32.45;33.11;100346.59;4378223;32;34789;-74
2022/08/09 09:21:56;;;;;;;7.10;4.68;;;;;;;32.46;33.05;100349.22;4377944;32;33807;-74
2022/08/09 09:24:29;;;;;;;6.53;3.85;;;;;;;31.17;34.40;100343.75;4378944;32;34156;-74
2022/08/09 09:27:00;;;;;;;7.47;3.83;;;;;;;30.62;35.77;100350.75;4378994;32;34666;-74
2022/08/09 09:29:37;;;;;;;7.20;4.18;;;;;;;30.65;35.94;100349.78;4377986;32;33664;-75
2022/08/09 09:32:26;;;;;;;7.95;4.43;;;;;;;31.26;34.75;100342.59;4378969;32;33904;-74
2022/08/09 09:35:07;;;;;;;7.45;4.30;;;;;;;30.14;37.03;100341.38;4378755;32;33862;-75
2022/08/09 09:37:37;;;;;;;5.75;4.00;;;;;;;30.52;36.11;100343.91;4364967;32;32170;-75
2022/08/09 09:40:09;;;;;;;7.65;4.18;;;;;;;30.73;35.34;100345.97;4376676;32;33679;-74
2022/08/09 09:42:39;;;;;;;5.43;3.75;;;;;;;30.34;36.65;100346.19;4378361;32;34694;-74
2022/08/09 09:45:12;;;;;;;10.77;4.33;;;;;;;29.90;37.36;100342.94;4379159;32;34099;-74
2022/08/09 09:47:51;;;;;;;8.23;4.50;;;;;;;29.72;38.25;100346.03;4373544;32;34017;-75
2022/08/09 09:50:45;;;;;;;12.32;4.57;;;;;;;30.87;35.70;100350.03;4379014;32;33567;-75
2022/08/09 09:53:19;;;;;;;5.90;3.65;;;;;;;31.20;34.95;100341.91;4375999;32;34582;-75
2022/08/09 09:55:59;;;;;;;8.18;4.05;;;;;;;31.32;34.77;100341.50;4374409;32;32716;-74
2022/08/09 09:58:46;;;;;;;7.82;3.67;;;;;;;31.32;34.64;100336.16;4377820;32;34785;-75
2022/08/09 10:01:17;;;;;;;7.15;4.28;;;;;;;31.35;34.23;100341.41;4374481;32;34082;-77
2022/08/09 10:04:12;;;;;;;7.93;4.18;;;;;;;31.68;33.23;100344.81;4373498;32;33987;-78
2022/08/09 10:06:48;;;;;;;7.45;4.20;;;;;;;32.37;33.19;100343.31;4372500;32;34308;-77
2022/08/09 10:09:21;;;;;;;8.57;4.07;;;;;;;31.61;33.70;100343.25;4377703;32;32876;-78
2022/08/09 10:11:59;;;;;;;11.57;4.47;;;;;;;31.45;34.30;100332.16;4377636;32;34106;-80
2022/08/09 10:14:46;;;;;;;8.05;3.90;;;;;;;32.49;32.56;100334.81;4363805;32;33991;-78
2022/08/09 10:17:19;;;;;;;7.15;4.05;;;;;;;32.21;32.80;100333.16;4377739;32;33229;-77
2022/08/09 10:20:24;;;;;;;7.20;3.95;;;;;;;31.14;34.39;100322.44;4362892;32;32708;-76
2022/08/09 10:23:12;;;;;;;;;;;;;;;30.77;35.51;100334.25;4374194;32;33234;-75
2022/08/09 10:25:46;;;;;;;7.22;4.07;;;;;;;30.94;34.76;100324.87;4378710;32;33410;-78
2022/08/09 10:28:35;;;;;;;9.13;4.30;;;;;;;30.73;35.09;100313.88;4377680;32;33371;-74
2022/08/09 10:31:06;;;;;;;7.05;4.00;;;;;;;31.78;33.81;100315.03;4365479;32;33614;-76
2022/08/09 10:33:54;;;;;;;8.27;4.10;;;;;;;32.10;32.65;100319.25;4372738;32;33926;-76
2022/08/09 10:36:42;;;;;;;9.10;3.37;;;;;;;32.98;31.77;100319.53;4376732;32;32627;-76
2022/08/09 10:39:11;;;;;;;8.13;4.00;;;;;;;32.22;33.47;100318.84;4363959;32;33961;-76
2022/08/09 10:41:46;;;;;;;8.02;3.83;;;;;;;32.85;32.13;100318.28;4376161;32;34098;-77
2022/08/09 10:44:21;;;;;;;7.22;3.70;;;;;;;33.17;31.98;100308.97;4363742;32;33791;-76
2022/08/09 10:47:30;;;;;;;7.78;3.50;;;;;;;33.02;32.06;100310.44;4361012;32;33844;-77
2022/08/09 10:51:05;;;;;;;7.05;3.72;;;;;;;33.05;31.87;100315.69;4347318;32;33433;-78
2022/08/09 10:53:27;;;;;;;7.85;4.10;;;;;;;32.57;32.72;100310.41;4368581;32;33992;-78
2022/08/09 10:56:17;;;;;;;6.10;3.42;;;;;;;30.04;37.52;100314.94;4353261;32;32261;-78
2022/08/09 10:58:51;;;;;;;8.50;3.97;;;;;;;30.93;35.61;100312.44;4377352;32;34609;-77
2022/08/09 11:01:32;;;;;;;9.13;3.65;;;;;;;31.43;35.04;100309.91;4376388;32;33057;-76
2022/08/09 11:04:27;;;;;;;9.57;4.00;;;;;;;30.56;35.95;100313.53;4377520;32;33979;-75
2022/08/09 11:06:58;;;;;;;8.43;4.22;;;;;;;29.64;38.20;100313.31;4374288;32;33360;-77
2022/08/09 11:09:36;;;;;;;11.70;4.40;;;;;;;29.16;39.12;100304.69;4376717;32;34696;-75
2022/08/09 11:12:10;;;;;;;6.35;4.40;;;;;;;29.84;38.10;100313.69;4374852;32;33194;-77
2022/08/09 11:14:43;;;;;;;7.40;4.18;;;;;;;31.11;35.26;100302.94;4376188;32;32889;-78
2022/08/09 11:17:13;;;;;;;6.95;4.00;;;;;;;31.36;34.84;100306.56;4376041;32;32811;-78
2022/08/09 11:19:53;;;;;;;6.53;4.12;;;;;;;31.00;34.58;100303.25;4376834;32;33848;-77
2022/08/09 11:22:43;;;;;;;6.72;4.00;;;;;;;30.85;34.85;100303.72;4377300;32;33136;-78
2022/08/09 11:25:20;;;;;;;6.75;4.20;;;;;;;30.87;34.92;100301.91;4362947;32;34541;-78
2022/08/09 11:28:33;;;;;;;6.15;4.05;;;;;;;30.82;35.02;100301.16;4373829;32;34092;-77
2022/08/09 11:31:45;;;;;;;7.97;3.95;;;;;;;31.26;34.37;100298.91;4374938;32;33975;-77
2022/08/09 11:34:24;;;;;;;7.47;3.70;;;;;;;30.03;36.57;100302.53;4364598;32;34100;-78
2022/08/09 11:36:52;;;;;;;9.38;4.60;;;;;;;30.43;35.88;100290.75;4375774;32;33029;-79
2022/08/09 11:39:23;;;;;;;7.35;3.90;;;;;;;30.62;35.55;100297.28;4364493;32;33535;-78
2022/08/09 11:41:51;;;;;;;7.55;3.92;;;;;;;31.73;34.29;100291.06;4363178;32;34435;-79
2022/08/09 11:44:42;;;;;;;5.62;3.90;;;;;;;31.40;34.46;100293.94;4376959;32;34330;-79
2022/08/09 11:47:10;;;;;;;5.32;2.95;;;;;;;31.88;33.27;100293.22;4375746;32;34620;-79
2022/08/09 11:49:58;;;;;;;6.85;3.10;;;;;;;32.18;31.70;100290.41;4376183;32;34581;-80
2022/08/09 11:52:57;;;;;;;6.93;3.55;;;;;;;32.07;31.48;100287.25;4374074;32;34198;-79
2022/08/09 11:55:46;;;;;;;5.25;3.45;;;;;;;32.12;31.82;100290.59;4376707;32;33499;-77
2022/08/09 11:58:29;;;;;;;6.32;3.45;;;;;;;31.68;32.20;100285.00;4374880;32;33942;-77
2022/08/09 12:01:05;;;;;;;5.72;3.40;;;;;;;31.84;31.90;100288.91;4376014;32;34830;-76
2022/08/09 12:03:36;;;;;;;7.90;3.40;;;;;;;31.75;31.96;100286.53;4362277;32;32396;-77
2022/08/09 12:06:25;;;;;;;5.32;3.03;;;;;;;32.05;31.79;100289.97;4365303;32;33777;-76
2022/08/09 12:09:00;;;;;;;7.07;3.72;;;;;;;32.42;31.45;100282.38;4365418;32;34813;-78
2022/08/09 12:11:28;;;;;;;5.55;3.58;;;;;;;31.93;31.68;100285.91;4377306;32;33928;-76